createdAt,value
2022-11-19T00:01:19.981Z,94.00
2022-11-19T00:03:52.188Z,94.00
2022-11-19T00:06:22.354Z,94.00
2022-11-19T00:08:49.132Z,94.00
2022-11-19T00:11:42.045Z,94.00
2022-11-19T00:14:13.640Z,93.80
2022-11-19T00:16:40.654Z,93.70
2022-11-19T00:19:07.802Z,94.00
2022-11-19T00:21:34.448Z,93.80
2022-11-19T00:24:01.152Z,96.60
2022-11-19T00:26:28.068Z,96.00
2022-11-19T00:28:55.058Z,95.00
2022-11-19T00:31:22.113Z,94.70
2022-11-19T00:33:54.076Z,94.50
2022-11-19T00:36:21.390Z,94.40
2022-11-19T00:38:48.133Z,94.30
2022-11-19T00:41:14.773Z,94.30
2022-11-19T00:43:47.697Z,94.20
2022-11-19T00:46:19.209Z,94.20
2022-11-19T00:48:50.512Z,94.00
2022-11-19T00:51:18.348Z,94.00
2022-11-19T00:53:45.561Z,94.00
2022-11-19T00:56:14.520Z,94.00
2022-11-19T00:58:42.246Z,93.80
2022-11-19T01:01:10.039Z,94.00
2022-11-19T01:03:38.468Z,93.80
2022-11-19T01:06:06.324Z,93.80
2022-11-19T01:08:33.030Z,93.80
2022-11-19T01:11:08.191Z,93.70
2022-11-19T01:13:36.199Z,93.90
2022-11-19T01:16:08.435Z,94.30
2022-11-19T01:18:36.256Z,94.40
2022-11-19T01:21:03.850Z,94.50
2022-11-19T01:23:30.658Z,94.60
2022-11-19T01:25:57.571Z,94.30
2022-11-19T01:28:24.549Z,94.20
2022-11-19T01:30:51.438Z,94.10
2022-11-19T01:33:18.184Z,94.00
2022-11-19T01:35:53.995Z,93.90
2022-11-19T01:38:20.624Z,93.90
2022-11-19T01:40:47.272Z,95.60
2022-11-19T01:43:14.195Z,96.80
2022-11-19T01:45:48.842Z,97.30
2022-11-19T01:48:26.427Z,97.30
2022-11-19T01:50:58.980Z,97.20
2022-11-19T01:53:47.190Z,97.10
2022-11-19T01:56:14.350Z,97.00
2022-11-19T01:58:45.975Z,96.90
2022-11-19T02:01:32.512Z,96.80
2022-11-19T02:04:03.696Z,96.70
2022-11-19T02:06:30.993Z,96.60
2022-11-19T02:08:57.645Z,96.40
2022-11-19T02:11:47.371Z,96.20
2022-11-19T02:14:36.964Z,96.20
2022-11-19T02:17:24.324Z,96.00
2022-11-19T02:20:13.221Z,95.90
2022-11-19T02:23:11.601Z,96.00
2022-11-19T02:26:02.532Z,95.80
2022-11-19T02:28:40.247Z,95.60
2022-11-19T02:31:28.951Z,95.60
2022-11-19T02:34:30.636Z,95.60
2022-11-19T02:37:23.554Z,95.40
2022-11-19T02:40:05.999Z,95.50
2022-11-19T02:42:48.288Z,95.30
2022-11-19T02:45:30.369Z,95.10
2022-11-19T02:48:03.250Z,95.10
2022-11-19T02:50:37.946Z,95.00
2022-11-19T02:53:04.719Z,95.00
2022-11-19T02:55:31.772Z,94.90
2022-11-19T02:58:08.906Z,94.90
2022-11-19T03:01:09.223Z,94.80
2022-11-19T03:03:55.185Z,94.80
2022-11-19T03:06:26.601Z,94.80
2022-11-19T03:08:53.401Z,94.70
2022-11-19T03:11:29.423Z,94.70
2022-11-19T03:14:48.191Z,94.60
2022-11-19T03:17:21.755Z,94.50
2022-11-19T03:19:51.611Z,94.50
2022-11-19T03:22:24.806Z,94.40
2022-11-19T03:25:17.375Z,94.40
2022-11-19T03:27:50.229Z,94.30
2022-11-19T03:30:18.729Z,94.20
2022-11-19T03:32:48.774Z,94.20
2022-11-19T03:35:20.622Z,94.10
2022-11-19T03:37:50.975Z,94.10
2022-11-19T03:40:19.332Z,94.10
2022-11-19T03:42:49.524Z,94.10
2022-11-19T03:45:21.758Z,94.00
2022-11-19T03:47:51.995Z,93.80
2022-11-19T03:50:25.288Z,93.80
2022-11-19T03:52:52.402Z,94.00
2022-11-19T03:55:20.283Z,93.80
2022-11-19T03:57:47.044Z,93.70
2022-11-19T04:00:14.039Z,93.70
2022-11-19T04:02:40.882Z,93.70
2022-11-19T04:05:07.931Z,93.80
2022-11-19T04:07:34.653Z,93.60
2022-11-19T04:10:01.411Z,93.50
2022-11-19T04:12:28.029Z,93.50
2022-11-19T04:14:54.658Z,93.50
2022-11-19T04:17:21.284Z,93.40
2022-11-19T04:19:48.262Z,93.30
2022-11-19T04:22:15.085Z,93.30
2022-11-19T04:24:41.786Z,93.40
2022-11-19T04:27:08.440Z,93.40
2022-11-19T04:29:35.124Z,93.30
2022-11-19T04:32:01.775Z,93.10
2022-11-19T04:34:28.387Z,93.10
2022-11-19T04:36:55.049Z,93.00
2022-11-19T04:39:21.944Z,93.00
2022-11-19T04:41:48.780Z,93.00
2022-11-19T04:44:15.426Z,92.90
2022-11-19T04:46:42.057Z,92.90
2022-11-19T04:49:08.702Z,93.00
2022-11-19T04:51:35.346Z,92.80
2022-11-19T04:54:02.118Z,92.80
2022-11-19T04:56:28.885Z,92.70
2022-11-19T04:58:55.537Z,92.70
2022-11-19T05:01:22.342Z,92.70
2022-11-19T05:03:49.183Z,92.70
2022-11-19T05:06:15.825Z,92.40
2022-11-19T05:08:42.433Z,92.60
2022-11-19T05:11:09.229Z,92.80
2022-11-19T05:13:35.955Z,92.60
2022-11-19T05:16:03.050Z,92.50
2022-11-19T05:18:29.715Z,92.50
2022-11-19T05:20:56.324Z,92.50
2022-11-19T05:23:23.045Z,92.50
2022-11-19T05:25:50.272Z,92.40
2022-11-19T05:28:16.927Z,92.40
2022-11-19T05:30:43.630Z,92.40
2022-11-19T05:33:10.327Z,92.40
2022-11-19T05:35:37.044Z,92.30
2022-11-19T05:38:03.713Z,92.30
2022-11-19T05:40:30.363Z,92.40
2022-11-19T05:42:57.015Z,92.20
2022-11-19T05:45:23.658Z,92.30
2022-11-19T05:47:54.813Z,92.30
2022-11-19T05:50:21.675Z,92.30
2022-11-19T05:52:48.542Z,92.30
2022-11-19T05:55:16.748Z,92.30
2022-11-19T05:57:43.618Z,92.20
2022-11-19T06:00:11.284Z,92.00
2022-11-19T06:02:38.013Z,92.10
2022-11-19T06:05:05.567Z,92.20
2022-11-19T06:07:32.241Z,92.10
2022-11-19T06:09:58.960Z,92.10
2022-11-19T06:12:25.611Z,92.10
2022-11-19T06:14:52.302Z,92.00
2022-11-19T06:17:19.109Z,92.00
2022-11-19T06:19:45.716Z,92.00
2022-11-19T06:22:12.395Z,92.00
2022-11-19T06:24:39.032Z,92.00
2022-11-19T06:27:05.693Z,92.00
2022-11-19T06:29:32.290Z,91.80
2022-11-19T06:31:58.952Z,91.90
2022-11-19T06:34:25.608Z,91.80
2022-11-19T06:36:52.502Z,91.80
2022-11-19T06:39:19.703Z,91.80
2022-11-19T06:41:48.743Z,91.80
2022-11-19T06:44:15.718Z,91.80
2022-11-19T06:46:42.542Z,91.60
2022-11-19T06:49:12.267Z,91.80
2022-11-19T06:51:40.979Z,91.70
2022-11-19T06:54:07.625Z,91.70
2022-11-19T06:56:34.277Z,91.80
2022-11-19T06:59:00.934Z,91.60
2022-11-19T07:01:27.659Z,92.10
2022-11-19T07:03:54.341Z,92.10
2022-11-19T07:06:20.993Z,91.80
2022-11-19T07:08:47.615Z,91.40
2022-11-19T07:11:26.418Z,90.90
2022-11-19T07:14:00.365Z,90.80
2022-11-19T07:16:34.471Z,90.60
2022-11-19T07:19:03.849Z,90.50
2022-11-19T07:21:31.324Z,90.70
2022-11-19T07:23:59.472Z,90.70
2022-11-19T07:26:26.793Z,90.80
2022-11-19T07:28:54.069Z,90.70
2022-11-19T07:31:20.704Z,90.70
2022-11-19T07:33:47.391Z,90.80
2022-11-19T07:36:18.080Z,90.50
2022-11-19T07:38:45.458Z,90.60
2022-11-19T07:41:30.925Z,90.70
2022-11-19T07:43:57.593Z,90.50
2022-11-19T07:46:24.403Z,90.70
2022-11-19T07:48:55.248Z,90.70
2022-11-19T07:51:22.497Z,90.70
2022-11-19T07:53:49.720Z,90.50
2022-11-19T07:56:16.770Z,90.50
2022-11-19T07:58:43.755Z,90.70
2022-11-19T08:01:18.342Z,90.60
2022-11-19T08:03:49.612Z,90.70
2022-11-19T08:06:20.856Z,90.70
2022-11-19T08:08:47.867Z,90.70
2022-11-19T08:11:16.397Z,90.70
2022-11-19T08:13:43.498Z,90.80
2022-11-19T08:16:12.712Z,90.80
2022-11-19T08:18:39.960Z,90.80
2022-11-19T08:21:10.770Z,90.80
2022-11-19T08:23:39.074Z,90.70
2022-11-19T08:26:09.047Z,90.80
2022-11-19T08:28:35.686Z,90.80
2022-11-19T08:31:09.460Z,90.80
2022-11-19T08:33:36.476Z,90.80
2022-11-19T08:36:03.682Z,90.90
2022-11-19T08:38:34.485Z,90.80
2022-11-19T08:41:22.500Z,90.90
2022-11-19T08:43:49.365Z,90.80
2022-11-19T08:46:16.089Z,90.80
2022-11-19T08:48:42.829Z,90.80
2022-11-19T08:51:10.493Z,90.90
2022-11-19T08:53:37.751Z,90.90
2022-11-19T08:56:05.247Z,90.90
2022-11-19T08:58:32.163Z,90.80
2022-11-19T09:00:59.180Z,90.80
2022-11-19T09:03:25.957Z,90.90
2022-11-19T09:06:00.032Z,90.90
2022-11-19T09:08:27.385Z,90.90
2022-11-19T09:10:54.559Z,91.10
2022-11-19T09:13:21.625Z,90.90
2022-11-19T09:15:49.238Z,91.00
2022-11-19T09:18:16.106Z,90.80
2022-11-19T09:20:42.950Z,91.00
2022-11-19T09:23:10.043Z,90.90
2022-11-19T09:25:36.780Z,90.90
2022-11-19T09:28:03.868Z,90.80
2022-11-19T09:30:30.482Z,90.90
2022-11-19T09:32:59.857Z,90.90
2022-11-19T09:35:26.561Z,90.90
2022-11-19T09:37:53.410Z,90.90
2022-11-19T09:40:23.180Z,90.90
2022-11-19T09:43:15.481Z,90.90
2022-11-19T09:46:06.104Z,90.90
2022-11-19T09:48:39.128Z,90.80
2022-11-19T09:51:17.401Z,90.80
2022-11-19T09:53:56.704Z,90.80
2022-11-19T09:56:30.752Z,90.80
2022-11-19T09:58:58.840Z,90.90
2022-11-19T10:01:28.172Z,90.80
2022-11-19T10:03:55.220Z,90.80
2022-11-19T10:06:30.796Z,90.90
2022-11-19T10:09:33.710Z,90.80
2022-11-19T10:12:57.336Z,90.80
2022-11-19T10:15:38.151Z,90.90
2022-11-19T10:18:17.545Z,90.90
2022-11-19T10:20:58.981Z,90.80
2022-11-19T10:24:17.785Z,90.80
2022-11-19T10:26:58.580Z,90.80
2022-11-19T10:29:29.236Z,91.10
2022-11-19T10:32:29.066Z,92.30
2022-11-19T10:35:00.789Z,92.10
2022-11-19T10:37:35.349Z,91.80
2022-11-19T10:40:23.939Z,91.90
2022-11-19T10:42:55.767Z,91.50
2022-11-19T10:45:27.517Z,90.60
2022-11-19T10:48:09.420Z,90.30
2022-11-19T10:50:36.692Z,90.40
2022-11-19T10:53:32.259Z,90.10
2022-11-19T10:56:03.466Z,89.80
2022-11-19T10:58:58.121Z,89.80
2022-11-19T11:01:38.430Z,89.60
2022-11-19T11:04:13.091Z,89.40
2022-11-19T11:07:16.219Z,89.30
2022-11-19T11:09:43.773Z,89.20
2022-11-19T11:12:34.867Z,89.20
2022-11-19T11:15:17.153Z,89.00
2022-11-19T11:17:46.673Z,89.10
2022-11-19T11:20:17.052Z,88.90
2022-11-19T11:22:49.478Z,89.00
2022-11-19T11:25:27.410Z,89.00
2022-11-19T11:28:08.121Z,88.90
2022-11-19T11:30:35.393Z,88.90
2022-11-19T11:33:24.034Z,89.10
2022-11-19T11:35:53.067Z,88.90
2022-11-19T11:38:23.076Z,88.90
2022-11-19T11:41:56.364Z,89.50
2022-11-19T11:44:02.850Z,89.80
2022-11-19T11:46:36.849Z,90.50
2022-11-19T11:49:09.742Z,91.00
2022-11-19T11:51:39.855Z,92.40
2022-11-19T11:54:20.158Z,92.00
2022-11-19T11:56:47.461Z,90.80
2022-11-19T11:59:14.256Z,90.20
2022-11-19T12:01:42.525Z,89.80
2022-11-19T12:04:12.848Z,89.60
2022-11-19T12:06:56.598Z,89.50
2022-11-19T12:09:40.592Z,90.70
2022-11-19T12:12:24.271Z,91.00
2022-11-19T12:15:22.214Z,90.40
2022-11-19T12:18:06.832Z,90.10
2022-11-19T12:21:11.443Z,89.90
2022-11-19T12:23:50.565Z,89.70
2022-11-19T12:26:19.948Z,89.70
2022-11-19T12:29:14.795Z,89.80
2022-11-19T12:32:12.767Z,89.60
2022-11-19T12:34:54.619Z,89.70
2022-11-19T12:37:41.235Z,89.70
2022-11-19T12:40:23.182Z,89.70
2022-11-19T12:43:03.215Z,90.20
2022-11-19T12:45:55.830Z,90.40
2022-11-19T12:48:44.874Z,90.10
2022-11-19T12:51:52.002Z,90.00
2022-11-19T12:54:31.755Z,89.90
2022-11-19T12:57:17.822Z,89.80
2022-11-19T13:00:08.272Z,89.80
2022-11-19T13:02:50.187Z,89.80
2022-11-19T13:05:32.591Z,89.80
2022-11-19T13:08:04.652Z,89.80
2022-11-19T13:10:42.905Z,90.00
2022-11-19T13:13:14.771Z,90.10
2022-11-19T13:16:11.067Z,90.00
2022-11-19T13:18:42.048Z,89.80
2022-11-19T13:21:18.486Z,89.80
2022-11-19T13:23:47.967Z,89.70
2022-11-19T13:26:24.664Z,89.70
2022-11-19T13:28:56.142Z,90.90
2022-11-19T13:31:33.608Z,90.20
2022-11-19T13:34:12.754Z,89.60
2022-11-19T13:36:49.145Z,89.20
2022-11-19T13:39:26.239Z,89.20
2022-11-19T13:42:13.810Z,89.50
2022-11-19T13:44:43.511Z,90.00
2022-11-19T13:47:22.529Z,89.70
2022-11-19T13:49:58.400Z,89.60
2022-11-19T13:52:32.171Z,89.50
2022-11-19T13:55:00.710Z,89.50
2022-11-19T13:57:33.941Z,89.50
2022-11-19T14:00:08.590Z,89.40
2022-11-19T14:03:10.556Z,89.40
2022-11-19T14:06:03.520Z,89.40
2022-11-19T14:08:48.184Z,89.60
2022-11-19T14:11:43.524Z,89.50
2022-11-19T14:14:59.976Z,89.60
2022-11-19T14:18:13.168Z,89.50
2022-11-19T14:21:03.441Z,89.60
2022-11-19T14:24:05.984Z,89.50
2022-11-19T14:26:41.477Z,89.60
2022-11-19T14:29:26.215Z,89.60
2022-11-19T14:32:06.070Z,89.60
2022-11-19T14:34:35.205Z,89.70
2022-11-19T14:37:22.926Z,89.70
2022-11-19T14:40:01.233Z,89.80
2022-11-19T14:42:27.923Z,89.70
2022-11-19T14:45:03.841Z,89.70
2022-11-19T14:47:43.427Z,89.80
2022-11-19T14:50:29.794Z,92.10
2022-11-19T14:52:59.499Z,93.60
2022-11-19T14:55:32.688Z,93.30
2022-11-19T14:58:04.487Z,93.10
2022-11-19T15:00:37.151Z,92.80
2022-11-19T15:03:07.439Z,92.90
2022-11-19T15:05:39.193Z,92.80
2022-11-19T15:08:17.872Z,91.80
2022-11-19T15:11:03.075Z,90.70
2022-11-19T15:13:32.208Z,90.10
2022-11-19T15:16:11.820Z,89.90
2022-11-19T15:18:41.440Z,90.50
2022-11-19T15:21:35.988Z,90.90
2022-11-19T15:24:21.385Z,90.40
2022-11-19T15:26:57.040Z,90.50
2022-11-19T15:30:14.758Z,90.50
2022-11-19T15:32:59.941Z,90.20
2022-11-19T15:35:51.992Z,89.90
2022-11-19T15:38:29.440Z,89.70
2022-11-19T15:40:58.784Z,89.70
2022-11-19T15:43:36.140Z,89.60
2022-11-19T15:46:30.180Z,90.30
2022-11-19T15:49:21.396Z,90.10
2022-11-19T15:52:17.679Z,90.20
2022-11-19T15:54:44.968Z,90.60
2022-11-19T15:57:23.525Z,90.10
2022-11-19T15:59:58.876Z,90.00
2022-11-19T16:02:36.793Z,90.50
2022-11-19T16:05:04.915Z,90.20
2022-11-19T16:07:32.127Z,89.70
2022-11-19T16:10:00.353Z,89.40
2022-11-19T16:12:47.109Z,89.20
2022-11-19T16:15:40.764Z,89.10
2022-11-19T16:18:16.272Z,89.10
2022-11-19T16:20:52.826Z,89.20
2022-11-19T16:23:22.619Z,89.70
2022-11-19T16:25:49.732Z,89.60
2022-11-19T16:28:30.408Z,89.60
2022-11-19T16:31:02.791Z,89.50
2022-11-19T16:33:30.699Z,89.40
2022-11-19T16:36:19.965Z,89.40
2022-11-19T16:38:49.556Z,89.50
2022-11-19T16:41:38.478Z,89.60
2022-11-19T16:44:09.185Z,89.50
2022-11-19T16:46:36.330Z,90.00
2022-11-19T16:49:04.166Z,90.00
2022-11-19T16:51:36.837Z,91.20
2022-11-19T16:54:06.279Z,91.70
2022-11-19T16:56:40.696Z,92.10
2022-11-19T16:59:07.487Z,91.80
2022-11-19T17:01:34.442Z,91.70
2022-11-19T17:04:09.213Z,91.40
2022-11-19T17:06:37.707Z,90.90
2022-11-19T17:09:05.785Z,90.50
2022-11-19T17:12:08.953Z,89.60
2022-11-19T17:14:35.627Z,89.20
2022-11-19T17:17:03.553Z,89.00
2022-11-19T17:19:34.917Z,89.00
2022-11-19T17:22:14.148Z,89.10
2022-11-19T17:24:43.560Z,89.00
2022-11-19T17:27:27.314Z,89.00
2022-11-19T17:30:09.977Z,89.40
2022-11-19T17:32:46.534Z,89.50
2022-11-19T17:35:31.705Z,90.00
2022-11-19T17:38:00.607Z,89.80
2022-11-19T17:40:27.386Z,89.40
2022-11-19T17:43:12.649Z,90.00
2022-11-19T17:45:39.317Z,90.20
2022-11-19T17:48:19.930Z,89.90
2022-11-19T17:50:46.662Z,89.70
2022-11-19T17:53:13.541Z,89.60
2022-11-19T17:55:42.934Z,89.60
2022-11-19T17:58:10.031Z,89.70
2022-11-19T18:00:37.195Z,89.50
2022-11-19T18:03:04.029Z,89.60
2022-11-19T18:05:34.697Z,89.60
2022-11-19T18:08:01.902Z,89.50
2022-11-19T18:10:28.653Z,90.50
2022-11-19T18:12:56.898Z,90.40
2022-11-19T18:15:23.645Z,89.50
2022-11-19T18:17:50.586Z,88.90
2022-11-19T18:20:17.387Z,88.60
2022-11-19T18:22:44.123Z,88.50
2022-11-19T18:25:17.247Z,88.30
2022-11-19T18:27:44.930Z,88.50
2022-11-19T18:30:12.832Z,88.40
2022-11-19T18:32:39.635Z,88.50
2022-11-19T18:35:15.571Z,88.50
2022-11-19T18:37:43.286Z,88.50
2022-11-19T18:40:11.308Z,88.50
2022-11-19T18:42:38.413Z,88.50
2022-11-19T18:45:06.096Z,88.70
2022-11-19T18:47:32.902Z,88.90
2022-11-19T18:49:59.557Z,89.00
2022-11-19T18:52:26.220Z,88.80
2022-11-19T18:54:52.919Z,88.70
2022-11-19T18:57:19.590Z,88.70
2022-11-19T18:59:46.486Z,88.70
2022-11-19T19:02:13.245Z,88.60
2022-11-19T19:04:40.158Z,88.60
2022-11-19T19:07:06.880Z,88.50
2022-11-19T19:09:33.618Z,88.50
2022-11-19T19:12:18.754Z,88.90
2022-11-19T19:14:47.902Z,89.30
2022-11-19T19:17:16.022Z,88.90
2022-11-19T19:19:42.720Z,88.40
2022-11-19T19:22:09.411Z,88.70
2022-11-19T19:24:37.127Z,89.00
2022-11-19T19:27:05.237Z,89.10
2022-11-19T19:29:32.232Z,89.00
2022-11-19T19:31:59.649Z,89.00
2022-11-19T19:34:30.231Z,89.10
2022-11-19T19:36:57.513Z,89.10
2022-11-19T19:39:24.946Z,89.10
2022-11-19T19:41:52.678Z,89.20
2022-11-19T19:44:19.588Z,89.30
2022-11-19T19:46:50.005Z,89.40
2022-11-19T19:49:16.930Z,89.40
2022-11-19T19:51:46.329Z,89.40
2022-11-19T19:54:15.418Z,89.50
2022-11-19T19:56:42.615Z,89.50
2022-11-19T19:59:12.628Z,89.50
2022-11-19T20:01:43.437Z,89.50
2022-11-19T20:04:11.728Z,89.60
2022-11-19T20:06:41.704Z,89.60
2022-11-19T20:09:09.611Z,89.50
2022-11-19T20:11:36.964Z,89.40
2022-11-19T20:14:04.535Z,89.30
2022-11-19T20:16:32.829Z,89.20
2022-11-19T20:19:01.394Z,89.10
2022-11-19T20:21:36.158Z,89.20
2022-11-19T20:24:08.706Z,89.00
2022-11-19T20:26:39.889Z,89.00
2022-11-19T20:29:07.489Z,88.90
2022-11-19T20:31:34.956Z,88.80
2022-11-19T20:34:03.948Z,88.70
2022-11-19T20:36:34.340Z,88.70
2022-11-19T20:39:02.320Z,88.60
2022-11-19T20:41:47.743Z,88.70
2022-11-19T20:44:25.652Z,88.70
2022-11-19T20:46:54.995Z,88.50
2022-11-19T20:49:29.868Z,88.50
2022-11-19T20:51:57.500Z,88.60
2022-11-19T20:54:25.119Z,88.70
2022-11-19T20:56:53.376Z,88.80
2022-11-19T20:59:21.562Z,88.80
2022-11-19T21:01:49.914Z,88.60
2022-11-19T21:04:17.084Z,89.40
2022-11-19T21:06:45.231Z,89.70
2022-11-19T21:09:12.632Z,89.50
2022-11-19T21:11:39.985Z,89.50
2022-11-19T21:14:07.504Z,89.20
2022-11-19T21:16:34.669Z,89.20
2022-11-19T21:19:02.054Z,89.10
2022-11-19T21:21:29.441Z,89.00
2022-11-19T21:23:56.760Z,89.00
2022-11-19T21:26:27.736Z,88.80
2022-11-19T21:28:56.948Z,88.70
2022-11-19T21:31:39.158Z,88.70
2022-11-19T21:34:12.897Z,88.90
2022-11-19T21:36:42.155Z,89.00
2022-11-19T21:39:10.499Z,88.80
2022-11-19T21:41:37.843Z,85.10
2022-11-19T21:44:05.989Z,85.60
2022-11-19T21:46:34.160Z,86.00
2022-11-19T21:49:01.523Z,86.20
2022-11-19T21:51:28.381Z,86.20
2022-11-19T21:53:56.844Z,86.40
2022-11-19T21:56:25.058Z,86.50
2022-11-19T21:58:52.058Z,86.80
2022-11-19T22:01:19.154Z,86.80
2022-11-19T22:03:46.103Z,86.90
2022-11-19T22:06:13.282Z,86.80
2022-11-19T22:08:41.437Z,86.80
2022-11-19T22:11:28.798Z,86.60
2022-11-19T22:14:03.658Z,86.80
2022-11-19T22:16:33.101Z,86.90
2022-11-19T22:19:00.196Z,87.10
2022-11-19T22:21:29.156Z,86.90
2022-11-19T22:23:56.252Z,87.00
2022-11-19T22:26:23.253Z,87.10
2022-11-19T22:28:49.963Z,87.10
2022-11-19T22:31:16.773Z,87.00
2022-11-19T22:33:43.531Z,87.00
2022-11-19T22:36:11.351Z,87.20
2022-11-19T22:38:38.960Z,87.10
2022-11-19T22:41:10.981Z,87.10
2022-11-19T22:43:38.681Z,87.10
2022-11-19T22:46:06.877Z,87.10
2022-11-19T22:48:33.801Z,87.00
2022-11-19T22:51:13.124Z,87.10
2022-11-19T22:53:40.334Z,87.10
2022-11-19T22:56:09.669Z,87.70
2022-11-19T22:58:37.600Z,87.60
2022-11-19T23:01:05.874Z,87.30
2022-11-19T23:03:33.125Z,87.10
2022-11-19T23:05:59.881Z,87.10
2022-11-19T23:08:26.771Z,87.10
2022-11-19T23:11:02.244Z,87.40
2022-11-19T23:13:32.436Z,87.30
2022-11-19T23:16:15.479Z,87.00
2022-11-19T23:18:50.738Z,87.30
2022-11-19T23:21:20.447Z,87.40
2022-11-19T23:23:47.249Z,87.40
2022-11-19T23:26:17.259Z,87.40
2022-11-19T23:28:47.161Z,87.20
2022-11-19T23:31:15.244Z,87.20
2022-11-19T23:33:42.476Z,87.20
2022-11-19T23:36:12.931Z,87.40
2022-11-19T23:38:39.919Z,87.40
2022-11-19T23:41:09.454Z,87.40
2022-11-19T23:43:37.038Z,87.40
2022-11-19T23:46:07.730Z,87.50
2022-11-19T23:48:35.349Z,88.40
2022-11-19T23:51:07.211Z,88.80
2022-11-19T23:53:33.999Z,88.40
2022-11-19T23:56:00.687Z,88.40
2022-11-19T23:58:28.160Z,88.40
